Time;durP1;ratioP1;P1;durP2;ratioP2;P2;SDS_P1;SDS_P2;PMS_P1;PMS_P2;Temp;Humidity;BMP_temperature;BMP_pressure;BME280_temperature;BME280_humidity;BME280_pressure;Samples;Min_cycle;Max_cycle;Signal;HPM_P1;HPM_P2
2021/07/06 00:01:22;;;;;;;6.07;2.92;;;;;;;19.12;57.96;100461.50;6156618;23;20017;-80
2021/07/06 00:03:47;;;;;;;5.60;2.70;;;;;;;19.21;57.60;100461.16;6129188;23;20097;-81
2021/07/06 00:06:12;;;;;;;4.32;3.17;;;;;;;18.96;58.63;100463.50;6154816;23;20434;-80
2021/07/06 00:08:38;;;;;;;11.27;2.67;;;;;;;19.02;58.40;100457.25;6154466;23;20334;-80
2021/07/06 00:11:03;;;;;;;5.30;2.58;;;;;;;19.04;58.27;100457.91;6153749;23;20466;-80
2021/07/06 00:13:28;;;;;;;6.68;3.53;;;;;;;19.11;58.04;100457.94;6154043;23;20076;-80
2021/07/06 00:15:54;;;;;;;4.07;2.20;;;;;;;19.18;57.63;100461.56;6153909;23;20434;-80
2021/07/06 00:18:19;;;;;;;3.90;2.63;;;;;;;19.01;58.28;100446.56;6126847;23;20438;-80
2021/07/06 00:20:44;;;;;;;3.45;2.67;;;;;;;19.12;57.86;100451.44;6155368;23;20016;-80
2021/07/06 00:23:10;;;;;;;4.85;2.50;;;;;;;19.01;58.03;100454.75;6158129;23;20536;-80
2021/07/06 00:25:35;;;;;;;6.63;3.08;;;;;;;19.05;57.89;100462.31;6156527;23;20080;-80
2021/07/06 00:28:00;;;;;;;4.65;3.42;;;;;;;19.01;58.30;100454.75;6155624;23;20010;-80
2021/07/06 00:30:26;;;;;;;6.22;3.83;;;;;;;19.11;58.02;100454.38;6155665;23;20350;-81
2021/07/06 00:32:52;;;;;;;6.28;3.70;;;;;;;18.96;58.60;100452.59;6128138;23;20459;-80
2021/07/06 00:35:18;;;;;;;5.05;3.47;;;;;;;18.91;58.80;100448.78;6154427;23;20009;-80
2021/07/06 00:37:44;;;;;;;7.68;3.10;;;;;;;18.98;58.57;100446.97;6154075;23;20398;-80
2021/07/06 00:40:10;;;;;;;7.28;3.53;;;;;;;18.93;58.87;100446.69;6153574;23;20005;-80
2021/07/06 00:42:43;;;;;;;8.52;3.55;;;;;;;19.00;58.88;100450.31;6127354;23;20404;-80
2021/07/06 00:45:11;;;;;;;3.67;2.67;;;;;;;19.05;58.69;100453.28;6158071;23;20009;-80
2021/07/06 00:47:38;;;;;;;3.90;3.15;;;;;;;18.97;58.94;100448.81;6157339;23;20009;-80
2021/07/06 00:50:11;;;;;;;7.85;3.45;;;;;;;18.98;58.96;100446.97;6128758;23;20010;-80
2021/07/06 00:52:37;;;;;;;5.40;3.08;;;;;;;18.82;59.93;100446.22;6128390;23;20373;-80
2021/07/06 00:55:05;;;;;;;8.45;3.88;;;;;;;18.80;60.05;100442.81;6154114;23;20006;-80
2021/07/06 00:57:31;;;;;;;4.25;3.70;;;;;;;18.79;60.13;100445.72;6153629;23;20039;-80
2021/07/06 01:00:00;;;;;;;10.52;4.30;;;;;;;18.73;60.45;100438.34;6152973;23;20348;-80
2021/07/06 01:02:26;;;;;;;5.55;3.72;;;;;;;18.84;60.24;100437.81;6152914;23;20088;-80
2021/07/06 01:04:52;;;;;;;4.88;4.22;;;;;;;18.74;60.72;100440.06;6153354;23;20036;-80
2021/07/06 01:07:19;;;;;;;9.98;4.68;;;;;;;18.66;61.13;100445.59;6131425;23;20446;-80
2021/07/06 01:09:45;;;;;;;7.55;5.70;;;;;;;18.74;61.26;100435.44;6129769;23;20009;-80
2021/07/06 01:12:11;;;;;;;5.82;5.22;;;;;;;18.72;61.25;100432.03;6155308;23;20039;-80
2021/07/06 01:14:37;;;;;;;6.35;5.45;;;;;;;18.65;61.79;100433.03;6154886;23;20346;-80
2021/07/06 01:17:03;;;;;;;11.50;5.82;;;;;;;18.71;61.59;100427.63;6154424;23;20322;-80
2021/07/06 01:19:28;;;;;;;7.57;5.40;;;;;;;18.80;61.54;100426.47;6153434;23;20005;-80
2021/07/06 01:21:54;;;;;;;9.90;6.45;;;;;;;18.64;62.74;100425.88;6152843;23;20009;-80
2021/07/06 01:24:19;;;;;;;10.70;6.70;;;;;;;18.66;62.64;100426.53;6152981;23;20020;-80
2021/07/06 01:26:50;;;;;;;11.82;6.13;;;;;;;18.74;62.28;100418.25;6151976;23;20009;-80
2021/07/06 01:29:16;;;;;;;;;;;;;;;18.57;63.06;100420.38;6153113;23;20099;-80
2021/07/06 01:31:47;;;;;;;12.32;7.10;;;;;;;18.72;62.69;100423.84;6157295;23;19908;-80
2021/07/06 01:34:12;;;;;;;7.55;6.80;;;;;;;18.71;62.63;100424.91;6157948;23;20032;-80
2021/07/06 01:36:39;;;;;;;12.25;7.07;;;;;;;18.69;63.09;100420.69;6157012;23;20056;-80
2021/07/06 01:39:04;;;;;;;13.20;7.97;;;;;;;18.65;63.84;100411.25;6156183;23;20010;-80
2021/07/06 01:41:29;;;;;;;13.05;8.10;;;;;;;18.73;63.65;100411.09;6156051;23;20013;-80
2021/07/06 01:43:55;;;;;;;11.65;9.35;;;;;;;18.80;63.51;100404.69;6153927;23;20048;-80
2021/07/06 01:46:20;;;;;;;11.27;7.38;;;;;;;18.86;63.63;100403.06;6153507;23;20005;-80
2021/07/06 01:48:45;;;;;;;12.65;8.75;;;;;;;18.79;64.20;100403.00;6153402;23;20013;-80
2021/07/06 01:51:11;;;;;;;16.38;10.00;;;;;;;18.85;64.14;100395.91;6153545;23;20061;-80
2021/07/06 01:53:36;;;;;;;16.48;9.02;;;;;;;18.93;64.24;100394.94;6126210;23;20508;-80
2021/07/06 01:56:01;;;;;;;19.00;10.00;;;;;;;19.03;63.82;100384.50;6152946;23;20426;-80
2021/07/06 01:58:27;;;;;;;15.07;8.95;;;;;;;19.04;64.06;100388.94;6153090;23;20541;-80
2021/07/06 02:00:57;;;;;;;12.88;10.18;;;;;;;19.00;64.58;100382.19;6157779;23;20319;-80
2021/07/06 02:03:23;;;;;;;11.55;9.23;;;;;;;19.06;64.15;100381.38;6156772;23;20072;-80
2021/07/06 02:05:55;;;;;;;11.57;9.02;;;;;;;19.07;64.31;100385.81;6156693;23;20104;-80
2021/07/06 02:08:21;;;;;;;10.95;9.15;;;;;;;19.09;64.46;100378.25;6155250;23;20520;-80
2021/07/06 02:10:51;;;;;;;12.00;10.52;;;;;;;18.99;65.03;100370.44;6154602;23;20315;-80
2021/07/06 02:13:19;;;;;;;15.05;10.43;;;;;;;19.03;65.03;100365.41;6154612;23;20005;-80
2021/07/06 02:15:46;;;;;;;11.68;9.70;;;;;;;19.01;65.25;100364.81;6126937;23;20020;-80
2021/07/06 02:18:19;;;;;;;14.40;10.13;;;;;;;19.04;65.18;100364.41;6153523;23;20072;-80
2021/07/06 02:20:47;;;;;;;12.70;9.40;;;;;;;19.12;64.88;100353.31;6152727;23;20044;-80
2021/07/06 02:23:14;;;;;;;16.83;9.02;;;;;;;19.24;64.14;100353.59;6152273;23;20009;-80
2021/07/06 02:25:39;;;;;;;13.20;8.77;;;;;;;19.23;64.55;100344.56;6152332;23;20009;-80
2021/07/06 02:28:04;;;;;;;11.27;9.45;;;;;;;19.21;64.59;100340.38;6129985;23;20005;-80
2021/07/06 02:30:30;;;;;;;12.38;9.30;;;;;;;19.26;64.37;100333.28;6130923;23;20017;-80
2021/07/06 02:32:55;;;;;;;11.90;10.25;;;;;;;19.21;64.13;100330.31;6156618;23;20013;-80
2021/07/06 02:35:26;;;;;;;12.68;9.63;;;;;;;19.22;64.16;100331.13;6156262;23;20016;-80
2021/07/06 02:37:51;;;;;;;13.48;8.85;;;;;;;19.26;63.85;100326.97;6154739;23;20010;-80
2021/07/06 02:40:16;;;;;;;10.73;8.73;;;;;;;19.26;63.70;100329.72;6128754;23;20009;-80
2021/07/06 02:42:43;;;;;;;12.98;9.02;;;;;;;19.34;63.44;100321.34;6155394;23;20017;-80
2021/07/06 02:45:10;;;;;;;16.80;9.18;;;;;;;19.37;63.23;100318.19;6154339;23;20069;-80
2021/07/06 02:47:35;;;;;;;10.32;7.63;;;;;;;19.30;63.47;100317.34;6154800;23;20010;-80
2021/07/06 02:50:03;;;;;;;15.43;8.70;;;;;;;19.38;63.33;100313.63;6154070;23;20010;-80
2021/07/06 02:52:28;;;;;;;12.80;8.15;;;;;;;19.35;63.33;100311.28;6107580;23;20005;-80
2021/07/06 02:54:54;;;;;;;14.35;8.60;;;;;;;19.34;63.46;100315.88;6159573;23;20006;-80
2021/07/06 02:57:35;;;;;;;12.55;8.55;;;;;;;19.32;63.43;100315.25;6158023;23;20370;-80
2021/07/06 03:00:21;;;;;;;16.75;8.55;;;;;;;19.37;63.61;100322.81;6130503;23;20073;-80
2021/07/06 03:02:50;;;;;;;11.98;7.82;;;;;;;19.39;63.51;100323.47;6130393;23;20017;-80
2021/07/06 03:05:17;;;;;;;11.63;7.65;;;;;;;19.38;63.86;100324.53;6155984;23;20025;-80
2021/07/06 03:07:43;;;;;;;18.42;8.30;;;;;;;19.46;63.72;100324.31;6155868;23;20013;-80
2021/07/06 03:10:10;;;;;;;11.50;8.40;;;;;;;19.41;64.16;100324.94;6154801;23;20060;-80
2021/07/06 03:12:36;;;;;;;15.25;8.70;;;;;;;19.48;64.23;100324.97;6155144;23;20378;-80
2021/07/06 03:15:03;;;;;;;18.35;9.00;;;;;;;19.47;65.13;100331.47;6154642;23;20013;-80
2021/07/06 03:17:29;;;;;;;12.73;9.55;;;;;;;19.56;65.17;100326.66;6154394;23;20012;-80
2021/07/06 03:19:54;;;;;;;15.73;9.07;;;;;;;19.59;65.48;100326.25;6131621;23;20009;-80
2021/07/06 03:22:19;;;;;;;17.90;9.52;;;;;;;19.53;66.12;100327.94;6160645;23;20005;-81
2021/07/06 03:24:45;;;;;;;13.77;9.93;;;;;;;19.51;66.92;100325.41;6158485;23;20381;-80
2021/07/06 03:27:10;;;;;;;18.40;9.80;;;;;;;19.61;66.57;100315.97;6157129;23;20033;-80
2021/07/06 03:29:35;;;;;;;15.75;10.68;;;;;;;19.65;66.45;100320.00;6156656;23;20357;-80
2021/07/06 03:32:01;;;;;;;16.75;10.80;;;;;;;19.62;67.54;100320.38;6156371;23;20033;-80
2021/07/06 03:34:26;;;;;;;18.15;12.68;;;;;;;19.65;67.26;100309.97;6155059;23;20112;-80
2021/07/06 03:36:52;;;;;;;38.28;13.30;;;;;;;19.58;68.08;100325.41;6154059;23;20013;-80
2021/07/06 03:39:17;;;;;;;16.98;11.73;;;;;;;19.52;69.09;100316.16;6126960;23;20464;-80
2021/07/06 03:41:42;;;;;;;15.35;11.77;;;;;;;19.53;69.36;100311.56;6127707;23;20307;-80
2021/07/06 03:44:08;;;;;;;17.02;13.55;;;;;;;19.60;69.64;100301.50;6157993;23;20373;-80
2021/07/06 03:46:33;;;;;;;18.85;13.77;;;;;;;19.66;69.61;100298.00;6131480;23;20016;-80
2021/07/06 03:49:02;;;;;;;17.02;13.00;;;;;;;19.61;69.78;100292.25;6156882;23;20465;-80
2021/07/06 03:51:30;;;;;;;15.38;13.15;;;;;;;19.68;69.70;100287.72;6154834;23;20329;-80
2021/07/06 03:53:55;;;;;;;14.60;13.18;;;;;;;19.71;69.50;100273.66;6128074;23;20013;-80
2021/07/06 03:56:20;;;;;;;16.35;13.98;;;;;;;19.74;70.01;100266.94;6127256;23;20013;-80
2021/07/06 03:58:46;;;;;;;13.63;12.07;;;;;;;19.74;70.17;100259.59;6154629;23;20037;-80
2021/07/06 04:01:11;;;;;;;17.92;13.57;;;;;;;19.72;70.07;100260.84;6154484;23;20377;-80
2021/07/06 04:03:36;;;;;;;16.48;13.10;;;;;;;19.84;69.97;100261.09;6153590;23;20059;-80
2021/07/06 04:06:02;;;;;;;16.63;12.70;;;;;;;19.82;70.12;100268.63;6156215;23;20002;-80
2021/07/06 04:08:27;;;;;;;19.48;13.35;;;;;;;19.82;70.17;100264.00;6156824;23;20418;-80
2021/07/06 04:10:52;;;;;;;15.40;13.15;;;;;;;19.80;70.45;100268.00;6156208;23;20005;-80
2021/07/06 04:13:18;;;;;;;19.25;13.13;;;;;;;19.81;70.39;100262.34;6155297;23;20039;-80
2021/07/06 04:15:43;;;;;;;19.30;12.43;;;;;;;19.81;70.28;100259.63;6154880;23;20363;-80
2021/07/06 04:18:08;;;;;;;19.63;13.85;;;;;;;19.84;70.41;100263.81;6155054;23;20096;-80
2021/07/06 04:20:34;;;;;;;17.95;12.93;;;;;;;19.90;70.48;100257.53;6154110;23;20022;-80
2021/07/06 04:22:59;;;;;;;17.30;12.38;;;;;;;19.91;70.66;100251.00;6153857;23;20013;-80
2021/07/06 04:25:25;;;;;;;26.42;12.60;;;;;;;19.94;70.40;100259.63;6126828;23;20029;-80
2021/07/06 04:27:51;;;;;;;14.57;11.65;;;;;;;19.89;70.68;100256.66;6126865;23;20335;-80
2021/07/06 04:30:18;;;;;;;13.75;10.48;;;;;;;19.95;69.86;100261.28;6156713;23;20045;-80
2021/07/06 04:32:43;;;;;;;12.25;10.60;;;;;;;19.90;70.66;100266.56;6129282;23;20394;-80
2021/07/06 04:35:09;;;;;;;17.98;11.20;;;;;;;19.87;71.03;100258.78;6129254;23;20017;-81
2021/07/06 04:37:34;;;;;;;14.85;10.85;;;;;;;19.85;71.32;100241.75;6155354;23;20014;-80
2021/07/06 04:40:00;;;;;;;12.32;10.98;;;;;;;19.94;70.93;100234.22;6155041;23;20005;-80
2021/07/06 04:42:25;;;;;;;15.07;10.40;;;;;;;19.93;71.75;100229.81;6127156;23;20008;-80
2021/07/06 04:44:51;;;;;;;12.73;10.57;;;;;;;19.90;71.52;100230.25;6154886;23;20021;-81
2021/07/06 04:47:16;;;;;;;13.88;11.75;;;;;;;19.96;71.80;100229.41;6153372;23;20051;-79
2021/07/06 04:49:41;;;;;;;12.60;10.23;;;;;;;19.94;71.50;100218.69;6153453;23;20001;-80
2021/07/06 04:52:07;;;;;;;11.00;9.00;;;;;;;20.09;70.81;100228.56;6155201;23;20024;-80
2021/07/06 04:54:33;;;;;;;9.90;8.80;;;;;;;20.07;71.10;100230.66;6156446;23;20044;-80
2021/07/06 04:56:59;;;;;;;10.52;8.82;;;;;;;20.07;71.16;100228.75;6156031;23;20021;-80
2021/07/06 04:59:24;;;;;;;12.90;8.50;;;;;;;20.02;71.47;100231.28;6155194;23;20005;-81
2021/07/06 05:01:50;;;;;;;10.25;7.47;;;;;;;20.10;71.25;100231.06;6153636;23;20017;-80
2021/07/06 05:04:16;;;;;;;11.40;8.77;;;;;;;20.16;71.28;100216.56;6154246;23;20334;-80
2021/07/06 05:06:42;;;;;;;9.48;7.40;;;;;;;20.16;71.11;100215.72;6154221;23;20005;-80
2021/07/06 05:09:07;;;;;;;11.23;7.47;;;;;;;20.35;70.51;100217.59;6126954;23;20084;-80
2021/07/06 05:11:33;;;;;;;9.05;6.63;;;;;;;20.33;70.34;100216.97;6153093;23;20005;-80
2021/07/06 05:13:58;;;;;;;7.88;6.95;;;;;;;20.34;70.66;100204.16;6156220;23;20005;-80
2021/07/06 05:16:23;;;;;;;10.73;6.20;;;;;;;20.28;70.33;100199.53;6155955;23;20009;-80
2021/07/06 05:18:49;;;;;;;10.23;7.28;;;;;;;20.32;70.57;100198.88;6155437;23;20016;-80
2021/07/06 05:21:16;;;;;;;7.82;5.53;;;;;;;20.31;70.73;100191.75;6154765;23;20016;-80
2021/07/06 05:23:41;;;;;;;15.45;6.00;;;;;;;20.38;70.40;100197.22;6154320;23;20016;-80
2021/07/06 05:26:07;;;;;;;8.80;5.35;;;;;;;20.44;70.02;100194.44;6126601;23;20346;-80
2021/07/06 05:28:32;;;;;;;7.43;6.13;;;;;;;20.41;70.17;100185.84;6153310;23;20005;-81
2021/07/06 05:30:57;;;;;;;8.23;5.50;;;;;;;20.37;70.52;100190.06;6153565;23;20442;-80
2021/07/06 05:33:23;;;;;;;8.77;5.80;;;;;;;20.39;70.39;100187.97;6125851;23;20187;-80
2021/07/06 05:35:48;;;;;;;7.72;5.40;;;;;;;20.38;70.93;100186.28;6152782;23;20336;-80
2021/07/06 05:38:14;;;;;;;9.25;5.97;;;;;;;20.36;70.21;100182.94;6155220;23;20009;-80
2021/07/06 05:40:40;;;;;;;8.50;5.53;;;;;;;20.49;70.19;100176.59;6156691;23;20064;-81
2021/07/06 05:43:06;;;;;;;7.10;5.38;;;;;;;20.52;70.59;100163.38;6155380;23;20084;-81
2021/07/06 05:45:33;;;;;;;9.55;5.57;;;;;;;20.53;70.83;100167.78;6156345;23;20481;-81
2021/07/06 05:47:59;;;;;;;8.52;4.72;;;;;;;20.63;70.49;100165.47;6154454;23;20012;-80
2021/07/06 05:50:24;;;;;;;9.45;5.53;;;;;;;20.78;70.36;100175.25;6154734;23;20013;-80
2021/07/06 05:52:50;;;;;;;10.45;5.07;;;;;;;20.81;70.40;100183.84;6153711;23;20325;-80
2021/07/06 05:55:15;;;;;;;7.55;4.68;;;;;;;20.92;71.02;100187.81;6153927;23;20005;-80
2021/07/06 05:57:43;;;;;;;12.35;5.13;;;;;;;20.98;70.37;100197.06;6153788;23;20017;-81
2021/07/06 06:00:11;;;;;;;6.47;4.88;;;;;;;21.11;70.04;100205.19;6153058;23;20013;-80
2021/07/06 06:02:37;;;;;;;8.98;4.57;;;;;;;21.11;70.42;100195.06;6152776;23;20008;-81
2021/07/06 06:05:04;;;;;;;5.65;4.18;;;;;;;21.27;69.36;100201.09;6154416;23;20038;-81
2021/07/06 06:07:29;;;;;;;7.30;4.80;;;;;;;21.35;69.02;100200.84;6159000;23;20032;-81
2021/07/06 06:09:55;;;;;;;6.65;4.63;;;;;;;21.43;69.06;100205.28;6132226;23;20009;-81
2021/07/06 06:12:20;;;;;;;5.57;5.03;;;;;;;21.52;69.56;100199.31;6130943;23;20380;-81
2021/07/06 06:14:45;;;;;;;9.13;5.15;;;;;;;21.52;68.83;100193.84;6129440;23;20002;-81
2021/07/06 06:17:11;;;;;;;12.38;4.70;;;;;;;21.51;68.32;100192.13;6129569;23;20006;-81
2021/07/06 06:19:36;;;;;;;5.15;4.53;;;;;;;21.33;68.52;100197.47;6154789;23;20010;-80
2021/07/06 06:22:02;;;;;;;11.02;4.68;;;;;;;21.37;68.45;100198.78;6153101;23;20028;-80
2021/07/06 06:24:27;;;;;;;4.82;4.43;;;;;;;21.43;68.65;100194.31;6127076;23;20010;-80
2021/07/06 06:26:53;;;;;;;7.50;4.68;;;;;;;21.41;68.22;100200.00;6153119;23;20021;-80
2021/07/06 06:29:18;;;;;;;5.32;4.82;;;;;;;21.41;67.60;100197.25;6152220;23;20021;-80
2021/07/06 06:31:45;;;;;;;5.63;4.00;;;;;;;21.51;67.46;100183.94;6153502;23;20331;-80
2021/07/06 06:34:10;;;;;;;7.82;3.63;;;;;;;21.60;67.17;100184.50;6152847;23;20017;-80
2021/07/06 06:36:36;;;;;;;6.05;4.95;;;;;;;21.57;66.98;100169.38;6126308;23;20430;-80
2021/07/06 06:39:01;;;;;;;6.38;4.53;;;;;;;21.71;66.54;100178.31;6155337;23;20434;-81
2021/07/06 06:41:27;;;;;;;3.63;3.30;;;;;;;21.82;66.10;100179.47;6158561;23;20010;-81
2021/07/06 06:43:53;;;;;;;4.90;3.55;;;;;;;21.83;65.88;100181.19;6157682;23;20739;-80
2021/07/06 06:46:20;;;;;;;4.32;3.65;;;;;;;21.97;65.31;100177.25;6156632;23;20033;-80
2021/07/06 06:48:45;;;;;;;4.75;3.22;;;;;;;22.07;66.17;100163.06;6155701;23;20017;-80
2021/07/06 06:51:11;;;;;;;5.25;3.35;;;;;;;22.01;65.05;100153.84;6155869;23;20005;-81
2021/07/06 06:53:37;;;;;;;4.63;4.22;;;;;;;22.00;65.18;100149.41;6127431;23;20334;-81
2021/07/06 06:56:02;;;;;;;4.13;3.75;;;;;;;21.96;65.60;100136.41;6127410;23;20009;-80
2021/07/06 06:58:28;;;;;;;5.15;4.00;;;;;;;22.02;65.26;100136.34;6154377;23;20009;-81
2021/07/06 07:00:53;;;;;;;8.27;3.97;;;;;;;22.20;65.84;100132.84;6154036;23;20063;-81
2021/07/06 07:03:18;;;;;;;5.18;4.03;;;;;;;22.37;65.30;100140.44;6126336;23;20011;-81
2021/07/06 07:05:44;;;;;;;4.97;4.22;;;;;;;22.44;65.17;100138.47;6152653;23;20357;-81
2021/07/06 07:08:09;;;;;;;5.68;4.40;;;;;;;22.40;63.86;100140.81;6153355;23;20005;-81
2021/07/06 07:10:35;;;;;;;8.77;3.70;;;;;;;22.40;64.37;100129.84;6153226;23;20016;-80
2021/07/06 07:13:00;;;;;;;7.82;4.28;;;;;;;22.44;64.30;100117.41;6125712;23;20016;-81
2021/07/06 07:15:26;;;;;;;5.47;3.45;;;;;;;22.37;64.44;100118.53;6127460;23;20040;-81
2021/07/06 07:17:51;;;;;;;7.50;4.07;;;;;;;22.21;64.54;100115.31;6153071;23;20006;-80
2021/07/06 07:20:17;;;;;;;4.50;3.90;;;;;;;22.05;65.51;100120.53;6153943;23;20009;-80
2021/07/06 07:22:43;;;;;;;11.80;4.18;;;;;;;21.93;65.56;100134.97;6126677;23;20060;-80
2021/07/06 07:25:11;;;;;;;8.77;3.50;;;;;;;21.82;66.51;100130.22;6154090;23;20016;-80
2021/07/06 07:27:37;;;;;;;6.25;3.70;;;;;;;21.80;66.80;100135.94;6155089;23;20056;-80
2021/07/06 07:30:05;;;;;;;6.28;3.38;;;;;;;21.85;67.79;100135.25;6154467;23;20655;-81
2021/07/06 07:32:31;;;;;;;5.85;3.42;;;;;;;21.90;67.59;100134.59;6154658;23;20012;-80
2021/07/06 07:34:56;;;;;;;4.93;3.75;;;;;;;21.91;66.80;100126.13;6153869;23;20002;-80
2021/07/06 07:37:21;;;;;;;4.72;3.53;;;;;;;21.86;67.34;100127.88;6154185;23;20052;-80
2021/07/06 07:39:47;;;;;;;6.80;3.78;;;;;;;21.92;67.85;100124.25;6154381;23;20024;-81
2021/07/06 07:42:13;;;;;;;3.40;2.88;;;;;;;22.02;68.56;100138.25;6154431;23;20005;-81
2021/07/06 07:44:39;;;;;;;8.75;2.90;;;;;;;22.20;66.55;100145.69;6154981;23;20080;-81
2021/07/06 07:47:04;;;;;;;7.28;3.25;;;;;;;22.24;66.18;100138.69;6154832;23;20043;-81
2021/07/06 07:49:29;;;;;;;6.47;2.63;;;;;;;22.34;65.87;100139.00;6155357;23;20012;-81
2021/07/06 07:51:55;;;;;;;9.65;3.00;;;;;;;22.37;65.80;100138.53;6154394;23;20020;-80
2021/07/06 07:54:20;;;;;;;7.78;2.92;;;;;;;22.33;65.30;100141.97;6127943;23;20009;-80
2021/07/06 07:56:46;;;;;;;7.95;3.10;;;;;;;22.31;65.89;100149.56;6154331;23;20032;-81
2021/07/06 07:59:11;;;;;;;7.85;3.25;;;;;;;22.35;66.85;100132.47;6154120;23;20006;-80
2021/07/06 08:01:37;;;;;;;4.50;3.05;;;;;;;22.42;66.21;100116.78;6154348;23;20088;-81
2021/07/06 08:04:02;;;;;;;4.22;2.67;;;;;;;22.41;65.24;100103.31;6156563;23;20052;-81
2021/07/06 08:06:28;;;;;;;5.53;2.75;;;;;;;22.47;65.94;100096.91;6158419;23;20132;-81
2021/07/06 08:08:53;;;;;;;7.72;3.00;;;;;;;22.42;65.62;100102.25;6156527;23;20518;-80
2021/07/06 08:11:19;;;;;;;6.30;2.83;;;;;;;22.33;65.26;100107.19;6156739;23;20005;-81
2021/07/06 08:13:44;;;;;;;8.10;2.70;;;;;;;22.31;65.85;100106.56;6153687;23;20006;-80
2021/07/06 08:16:10;;;;;;;5.82;2.40;;;;;;;22.33;66.57;100107.19;6154989;23;20013;-81
2021/07/06 08:18:35;;;;;;;6.65;2.30;;;;;;;22.37;66.05;100110.31;6128418;23;20009;-80
2021/07/06 08:21:01;;;;;;;3.30;2.45;;;;;;;22.33;65.70;100114.56;6128611;23;20084;-81
2021/07/06 08:23:26;;;;;;;5.45;2.50;;;;;;;22.39;66.20;100111.75;6154080;23;20016;-81
2021/07/06 08:25:52;;;;;;;4.40;2.72;;;;;;;22.45;65.86;100102.63;6154517;23;20033;-81
2021/07/06 08:28:18;;;;;;;2.90;2.47;;;;;;;22.46;64.95;100097.97;6127876;23;20009;-80
2021/07/06 08:30:44;;;;;;;5.47;2.33;;;;;;;22.60;65.40;100099.47;6128193;23;20006;-80
2021/07/06 08:33:10;;;;;;;5.80;2.30;;;;;;;22.77;64.93;100102.41;6154878;23;20041;-80
2021/07/06 08:35:35;;;;;;;4.85;2.00;;;;;;;22.99;65.44;100099.19;6155592;23;20006;-80
2021/07/06 08:38:00;;;;;;;3.60;2.28;;;;;;;23.07;64.24;100105.19;6128436;23;20006;-81
2021/07/06 08:40:26;;;;;;;4.03;2.40;;;;;;;23.10;63.61;100114.88;6130004;23;20006;-81
2021/07/06 08:42:53;;;;;;;4.88;2.60;;;;;;;23.12;63.71;100099.03;6154492;23;20088;-81
2021/07/06 08:45:20;;;;;;;9.07;1.95;;;;;;;23.27;63.43;100095.84;6128078;23;20446;-81
2021/07/06 08:47:45;;;;;;;6.68;1.95;;;;;;;23.32;64.05;100091.28;6154605;23;20021;-81
2021/07/06 08:50:11;;;;;;;2.75;2.20;;;;;;;23.41;62.42;100089.03;6128896;23;20083;-81
2021/07/06 08:52:41;;;;;;;5.30;2.30;;;;;;;23.41;61.63;100078.06;6155879;23;20427;-81
2021/07/06 08:55:07;;;;;;;3.30;2.20;;;;;;;23.61;62.14;100062.13;6155147;23;20001;-81
2021/07/06 08:57:36;;;;;;;3.63;2.05;;;;;;;23.66;60.76;100053.19;6155967;23;20373;-81
2021/07/06 09:00:02;;;;;;;4.95;2.30;;;;;;;23.73;60.20;100062.16;6128971;23;20006;-80
2021/07/06 09:02:27;;;;;;;2.22;1.85;;;;;;;23.64;59.39;100063.56;6154302;23;20010;-81
2021/07/06 09:04:54;;;;;;;7.82;2.08;;;;;;;23.77;59.95;100063.34;6154140;23;20015;-80
2021/07/06 09:07:20;;;;;;;3.25;1.75;;;;;;;23.88;59.41;100055.34;6153291;23;20009;-80
2021/07/06 09:09:47;;;;;;;5.07;1.80;;;;;;;24.13;59.54;100053.16;6154362;23;20017;-80
2021/07/06 09:12:14;;;;;;;4.78;1.38;;;;;;;24.48;59.16;100052.25;6153712;23;20032;-81
2021/07/06 09:14:48;;;;;;;2.83;1.50;;;;;;;24.77;58.30;100048.44;6153839;23;20001;-80
2021/07/06 09:17:24;;;;;;;5.50;1.67;;;;;;;24.97;56.24;100042.47;6153401;23;20338;-81
2021/07/06 09:19:53;;;;;;;3.45;1.80;;;;;;;25.25;56.35;100054.53;6154663;23;20005;-81
2021/07/06 09:22:24;;;;;;;6.93;1.60;;;;;;;25.30;54.79;100059.28;6128200;23;20484;-80
2021/07/06 09:24:59;;;;;;;3.15;1.50;;;;;;;25.53;55.28;100066.53;6153854;23;20009;-81
2021/07/06 09:27:38;;;;;;;8.75;1.83;;;;;;;25.41;54.53;100070.22;6153255;23;20009;-80
2021/07/06 09:30:14;;;;;;;4.28;1.60;;;;;;;25.49;53.93;100057.94;6152508;23;20024;-81
2021/07/06 09:32:48;;;;;;;3.83;1.65;;;;;;;25.55;53.84;100067.97;6152947;23;20083;-81
2021/07/06 09:35:28;;;;;;;3.13;1.50;;;;;;;25.48;53.48;100064.56;6153408;23;20434;-81
2021/07/06 09:37:55;;;;;;;6.90;2.15;;;;;;;25.44;53.35;100082.66;6126030;23;20014;-81
2021/07/06 09:40:30;;;;;;;2.78;1.35;;;;;;;25.48;54.15;100080.25;6152896;23;20033;-81
2021/07/06 09:43:15;;;;;;;1.98;1.30;;;;;;;25.59;53.95;100082.91;6152992;23;20040;-81
2021/07/06 09:45:57;;;;;;;5.47;1.98;;;;;;;25.63;53.58;100078.56;6127185;23;20029;-81
2021/07/06 09:48:23;;;;;;;7.47;1.95;;;;;;;25.61;53.71;100077.16;6127197;23;20386;-81
2021/07/06 09:50:49;;;;;;;5.68;1.77;;;;;;;25.53;54.38;100072.91;6153828;23;20036;-81
2021/07/06 09:53:25;;;;;;;4.18;1.77;;;;;;;25.33;54.31;100089.06;6126513;23;20405;-81
2021/07/06 09:55:50;;;;;;;4.80;1.45;;;;;;;25.16;55.52;100083.53;6157107;23;20013;-81
2021/07/06 09:58:16;;;;;;;7.63;1.80;;;;;;;25.08;55.77;100076.50;6126751;23;20013;-80
2021/07/06 10:00:41;;;;;;;2.67;1.33;;;;;;;24.84;57.04;100078.53;6153635;23;20012;-81
2021/07/06 10:03:07;;;;;;;7.15;1.70;;;;;;;24.67;58.04;100089.50;6153837;23;20085;-81
2021/07/06 10:05:33;;;;;;;3.72;1.75;;;;;;;24.51;57.98;100085.56;6154472;23;20009;-81
2021/07/06 10:07:59;;;;;;;4.75;1.20;;;;;;;24.64;57.40;100094.63;6153007;23;20020;-81
2021/07/06 10:10:25;;;;;;;3.22;1.30;;;;;;;24.71;56.58;100090.66;6153284;23;20373;-81
2021/07/06 10:12:50;;;;;;;2.22;1.25;;;;;;;24.73;56.83;100094.00;6153307;23;20450;-81
2021/07/06 10:15:19;;;;;;;4.97;1.60;;;;;;;24.73;56.93;100091.25;6153004;23;20001;-81
2021/07/06 10:17:45;;;;;;;6.10;1.95;;;;;;;24.76;56.66;100087.16;6153027;23;20010;-81
2021/07/06 10:20:14;;;;;;;1.63;1.20;;;;;;;24.85;56.83;100087.63;6154000;23;20013;-81
2021/07/06 10:22:39;;;;;;;2.85;1.80;;;;;;;24.83;57.50;100096.13;6154063;23;20073;-81
2021/07/06 10:25:08;;;;;;;4.68;2.00;;;;;;;24.71;56.70;100098.91;6153132;23;20091;-81
2021/07/06 10:27:38;;;;;;;4.70;1.50;;;;;;;24.64;56.81;100106.47;6153011;23;20005;-81
2021/07/06 10:30:07;;;;;;;3.25;1.80;;;;;;;24.51;57.67;100104.00;6152910;23;20021;-80
2021/07/06 10:32:37;;;;;;;2.80;1.67;;;;;;;24.62;57.61;100081.13;6126496;23;20481;-81
2021/07/06 10:35:03;;;;;;;2.53;1.60;;;;;;;24.76;57.32;100082.53;6153012;23;20001;-80
2021/07/06 10:37:30;;;;;;;2.55;1.27;;;;;;;24.79;57.02;100088.59;6153016;23;20084;-81
2021/07/06 10:40:11;;;;;;;2.72;1.58;;;;;;;24.90;56.32;100080.28;6152880;23;20009;-81
2021/07/06 10:42:41;;;;;;;5.70;1.80;;;;;;;25.04;56.33;100079.97;6157880;23;20027;-81
2021/07/06 10:45:32;;;;;;;6.53;1.80;;;;;;;25.04;56.05;100091.84;6153886;23;20037;-81
2021/07/06 10:47:57;;;;;;;;;;;;;;;25.09;56.22;100086.41;6155727;23;20006;-81
2021/07/06 10:50:31;;;;;;;5.53;1.50;;;;;;;25.06;55.84;100097.09;6154987;23;20210;-81
2021/07/06 10:53:19;;;;;;;3.58;1.70;;;;;;;24.97;56.00;100089.22;6154242;23;20558;-81
2021/07/06 10:55:56;;;;;;;9.80;2.03;;;;;;;25.03;55.86;100090.16;6154341;23;20385;-81
2021/07/06 10:58:54;;;;;;;6.32;1.80;;;;;;;25.09;56.12;100091.91;6154113;23;20013;-81
2021/07/06 11:01:37;;;;;;;18.50;2.45;;;;;;;25.02;54.85;100087.66;6128695;23;20092;-81
2021/07/06 11:04:04;;;;;;;33.70;3.58;;;;;;;25.14;54.74;100080.22;6155360;23;20005;-81
2021/07/06 11:06:55;;;;;;;9.50;2.60;;;;;;;25.27;54.94;100079.88;6154874;23;20009;-81
2021/07/06 11:09:36;;;;;;;4.43;1.50;;;;;;;25.34;53.82;100083.31;6121675;23;20009;-80
2021/07/06 11:12:29;;;;;;;7.75;1.60;;;;;;;25.46;54.88;100091.50;6128766;23;20020;-81
2021/07/06 11:15:04;;;;;;;10.60;1.85;;;;;;;25.56;54.15;100093.56;6155304;23;20016;-81
2021/07/06 11:17:37;;;;;;;9.75;1.63;;;;;;;25.54;53.50;100090.25;6127989;23;20342;-81
2021/07/06 11:20:11;;;;;;;10.55;1.50;;;;;;;25.56;52.90;100094.44;6130081;23;20335;-81
2021/07/06 11:22:51;;;;;;;4.40;0.93;;;;;;;25.53;52.83;100102.34;6129484;23;20505;-81